sensor_id;sensor_type;location;lat;lon;timestamp;P1;durP1;ratioP1;P2;durP2;ratioP2
23270;SDS011;11804;51.118;17.058;2023-12-14T00:00:54;29.23;;;10.40;;
23270;SDS011;11804;51.118;17.058;2023-12-14T00:03:22;37.83;;;12.07;;
23270;SDS011;11804;51.118;17.058;2023-12-14T00:05:50;27.93;;;12.67;;
23270;SDS011;11804;51.118;17.058;2023-12-14T00:08:17;30.63;;;11.40;;
23270;SDS011;11804;51.118;17.058;2023-12-14T00:10:45;26.87;;;11.97;;
23270;SDS011;11804;51.118;17.058;2023-12-14T00:13:12;30.43;;;12.00;;
23270;SDS011;11804;51.118;17.058;2023-12-14T00:15:40;26.40;;;11.93;;
23270;SDS011;11804;51.118;17.058;2023-12-14T00:18:07;25.83;;;10.97;;
23270;SDS011;11804;51.118;17.058;2023-12-14T00:20:35;33.40;;;12.23;;
23270;SDS011;11804;51.118;17.058;2023-12-14T00:23:02;31.93;;;13.63;;
23270;SDS011;11804;51.118;17.058;2023-12-14T00:25:30;31.17;;;12.97;;
23270;SDS011;11804;51.118;17.058;2023-12-14T00:27:57;34.70;;;13.60;;
23270;SDS011;11804;51.118;17.058;2023-12-14T00:30:25;35.33;;;13.37;;
23270;SDS011;11804;51.118;17.058;2023-12-14T00:32:52;37.47;;;12.80;;
23270;SDS011;11804;51.118;17.058;2023-12-14T00:35:20;25.90;;;12.20;;
23270;SDS011;11804;51.118;17.058;2023-12-14T00:37:47;29.97;;;12.63;;
23270;SDS011;11804;51.118;17.058;2023-12-14T00:40:14;28.90;;;12.00;;
23270;SDS011;11804;51.118;17.058;2023-12-14T00:42:42;31.63;;;12.67;;
23270;SDS011;11804;51.118;17.058;2023-12-14T00:45:10;34.77;;;12.27;;
23270;SDS011;11804;51.118;17.058;2023-12-14T00:47:37;23.83;;;10.70;;
23270;SDS011;11804;51.118;17.058;2023-12-14T00:50:05;35.80;;;14.60;;
23270;SDS011;11804;51.118;17.058;2023-12-14T00:52:34;30.00;;;11.63;;
23270;SDS011;11804;51.118;17.058;2023-12-14T00:55:02;32.50;;;12.23;;
23270;SDS011;11804;51.118;17.058;2023-12-14T00:57:30;25.53;;;11.93;;
23270;SDS011;11804;51.118;17.058;2023-12-14T00:59:57;28.93;;;12.43;;
23270;SDS011;11804;51.118;17.058;2023-12-14T01:02:25;27.73;;;11.97;;
23270;SDS011;11804;51.118;17.058;2023-12-14T01:04:52;26.93;;;12.87;;
23270;SDS011;11804;51.118;17.058;2023-12-14T01:07:20;32.83;;;12.53;;
23270;SDS011;11804;51.118;17.058;2023-12-14T01:09:47;31.30;;;12.83;;
23270;SDS011;11804;51.118;17.058;2023-12-14T01:12:15;38.53;;;14.43;;
23270;SDS011;11804;51.118;17.058;2023-12-14T01:14:42;30.10;;;11.47;;
23270;SDS011;11804;51.118;17.058;2023-12-14T01:17:10;33.40;;;12.67;;
23270;SDS011;11804;51.118;17.058;2023-12-14T01:19:42;26.00;;;12.17;;
23270;SDS011;11804;51.118;17.058;2023-12-14T01:22:07;31.07;;;13.20;;
23270;SDS011;11804;51.118;17.058;2023-12-14T01:24:35;27.27;;;10.47;;
23270;SDS011;11804;51.118;17.058;2023-12-14T01:27:04;34.77;;;13.47;;
23270;SDS011;11804;51.118;17.058;2023-12-14T01:29:31;27.03;;;12.40;;
23270;SDS011;11804;51.118;17.058;2023-12-14T01:31:59;34.07;;;13.53;;
23270;SDS011;11804;51.118;17.058;2023-12-14T01:34:26;29.70;;;11.57;;
23270;SDS011;11804;51.118;17.058;2023-12-14T01:36:55;34.90;;;12.87;;
23270;SDS011;11804;51.118;17.058;2023-12-14T01:39:22;29.07;;;12.40;;
23270;SDS011;11804;51.118;17.058;2023-12-14T01:41:50;33.10;;;13.97;;
23270;SDS011;11804;51.118;17.058;2023-12-14T01:44:18;29.07;;;12.67;;
23270;SDS011;11804;51.118;17.058;2023-12-14T01:46:45;30.73;;;12.53;;
23270;SDS011;11804;51.118;17.058;2023-12-14T01:49:13;29.07;;;11.77;;
23270;SDS011;11804;51.118;17.058;2023-12-14T01:51:41;35.00;;;12.67;;
23270;SDS011;11804;51.118;17.058;2023-12-14T01:54:08;31.23;;;13.23;;
23270;SDS011;11804;51.118;17.058;2023-12-14T01:56:36;39.10;;;13.83;;
23270;SDS011;11804;51.118;17.058;2023-12-14T01:59:03;29.57;;;11.50;;
23270;SDS011;11804;51.118;17.058;2023-12-14T02:04:04;39.43;;;15.90;;
23270;SDS011;11804;51.118;17.058;2023-12-14T02:06:33;35.00;;;13.70;;
23270;SDS011;11804;51.118;17.058;2023-12-14T02:09:00;39.17;;;12.40;;
23270;SDS011;11804;51.118;17.058;2023-12-14T02:11:28;34.53;;;12.70;;
23270;SDS011;11804;51.118;17.058;2023-12-14T02:13:56;25.53;;;12.33;;
23270;SDS011;11804;51.118;17.058;2023-12-14T02:16:24;30.47;;;11.70;;
23270;SDS011;11804;51.118;17.058;2023-12-14T02:18:52;28.63;;;12.07;;
23270;SDS011;11804;51.118;17.058;2023-12-14T02:21:19;36.40;;;12.30;;
23270;SDS011;11804;51.118;17.058;2023-12-14T02:23:47;35.10;;;11.60;;
23270;SDS011;11804;51.118;17.058;2023-12-14T02:26:14;28.23;;;11.80;;
23270;SDS011;11804;51.118;17.058;2023-12-14T02:28:42;28.63;;;11.17;;
23270;SDS011;11804;51.118;17.058;2023-12-14T02:31:10;27.10;;;11.53;;
23270;SDS011;11804;51.118;17.058;2023-12-14T02:33:38;25.93;;;11.60;;
23270;SDS011;11804;51.118;17.058;2023-12-14T02:36:06;24.80;;;11.37;;
23270;SDS011;11804;51.118;17.058;2023-12-14T02:38:34;25.13;;;11.57;;
23270;SDS011;11804;51.118;17.058;2023-12-14T02:41:01;29.00;;;11.43;;
23270;SDS011;11804;51.118;17.058;2023-12-14T02:43:29;31.00;;;11.07;;
23270;SDS011;11804;51.118;17.058;2023-12-14T02:45:57;38.33;;;11.40;;
23270;SDS011;11804;51.118;17.058;2023-12-14T02:48:26;28.03;;;11.63;;
23270;SDS011;11804;51.118;17.058;2023-12-14T02:50:55;36.17;;;13.77;;
23270;SDS011;11804;51.118;17.058;2023-12-14T02:53:24;27.77;;;11.83;;
23270;SDS011;11804;51.118;17.058;2023-12-14T02:55:52;23.60;;;10.20;;
23270;SDS011;11804;51.118;17.058;2023-12-14T02:58:20;26.97;;;11.00;;
23270;SDS011;11804;51.118;17.058;2023-12-14T03:00:48;27.17;;;10.53;;
23270;SDS011;11804;51.118;17.058;2023-12-14T03:03:15;19.70;;;9.70;;
23270;SDS011;11804;51.118;17.058;2023-12-14T03:05:43;30.10;;;11.67;;
23270;SDS011;11804;51.118;17.058;2023-12-14T03:08:11;22.30;;;10.93;;
23270;SDS011;11804;51.118;17.058;2023-12-14T03:10:39;31.57;;;12.60;;
23270;SDS011;11804;51.118;17.058;2023-12-14T03:13:06;23.33;;;10.47;;
23270;SDS011;11804;51.118;17.058;2023-12-14T03:15:34;29.87;;;10.03;;
23270;SDS011;11804;51.118;17.058;2023-12-14T03:18:01;31.87;;;9.80;;
23270;SDS011;11804;51.118;17.058;2023-12-14T03:20:29;24.87;;;9.87;;
23270;SDS011;11804;51.118;17.058;2023-12-14T03:22:58;28.23;;;11.57;;
23270;SDS011;11804;51.118;17.058;2023-12-14T03:25:26;27.33;;;10.30;;
23270;SDS011;11804;51.118;17.058;2023-12-14T03:27:53;29.03;;;10.40;;
23270;SDS011;11804;51.118;17.058;2023-12-14T03:30:21;21.13;;;10.53;;
23270;SDS011;11804;51.118;17.058;2023-12-14T03:32:48;26.47;;;11.90;;
23270;SDS011;11804;51.118;17.058;2023-12-14T03:35:16;25.70;;;9.60;;
23270;SDS011;11804;51.118;17.058;2023-12-14T03:37:44;27.97;;;10.87;;
23270;SDS011;11804;51.118;17.058;2023-12-14T03:40:11;21.57;;;9.67;;
23270;SDS011;11804;51.118;17.058;2023-12-14T03:42:39;21.27;;;8.87;;
23270;SDS011;11804;51.118;17.058;2023-12-14T03:45:07;32.63;;;11.17;;
23270;SDS011;11804;51.118;17.058;2023-12-14T03:47:36;25.83;;;9.07;;
23270;SDS011;11804;51.118;17.058;2023-12-14T03:50:04;26.80;;;9.30;;
23270;SDS011;11804;51.118;17.058;2023-12-14T03:52:32;22.63;;;9.00;;
23270;SDS011;11804;51.118;17.058;2023-12-14T03:55:00;31.93;;;8.53;;
23270;SDS011;11804;51.118;17.058;2023-12-14T03:57:28;28.10;;;11.03;;
23270;SDS011;11804;51.118;17.058;2023-12-14T03:59:55;27.07;;;8.63;;
23270;SDS011;11804;51.118;17.058;2023-12-14T04:02:23;24.73;;;8.63;;
23270;SDS011;11804;51.118;17.058;2023-12-14T04:04:50;25.00;;;9.33;;
23270;SDS011;11804;51.118;17.058;2023-12-14T04:07:18;23.57;;;8.33;;
23270;SDS011;11804;51.118;17.058;2023-12-14T04:09:45;18.43;;;7.57;;
23270;SDS011;11804;51.118;17.058;2023-12-14T04:12:14;22.60;;;8.20;;
23270;SDS011;11804;51.118;17.058;2023-12-14T04:14:42;25.73;;;8.97;;
23270;SDS011;11804;51.118;17.058;2023-12-14T04:17:10;22.33;;;9.17;;
23270;SDS011;11804;51.118;17.058;2023-12-14T04:19:38;18.27;;;7.43;;
23270;SDS011;11804;51.118;17.058;2023-12-14T04:22:06;18.57;;;8.23;;
23270;SDS011;11804;51.118;17.058;2023-12-14T04:24:34;20.60;;;7.27;;
23270;SDS011;11804;51.118;17.058;2023-12-14T04:27:01;20.07;;;7.80;;
23270;SDS011;11804;51.118;17.058;2023-12-14T04:29:29;20.80;;;8.03;;
23270;SDS011;11804;51.118;17.058;2023-12-14T04:31:56;21.87;;;9.40;;
23270;SDS011;11804;51.118;17.058;2023-12-14T04:34:24;24.87;;;8.40;;
23270;SDS011;11804;51.118;17.058;2023-12-14T04:36:51;22.20;;;7.57;;
23270;SDS011;11804;51.118;17.058;2023-12-14T04:39:21;19.30;;;7.53;;
23270;SDS011;11804;51.118;17.058;2023-12-14T04:41:50;18.97;;;8.43;;
23270;SDS011;11804;51.118;17.058;2023-12-14T04:44:18;16.90;;;7.03;;
23270;SDS011;11804;51.118;17.058;2023-12-14T04:46:50;22.03;;;7.80;;
23270;SDS011;11804;51.118;17.058;2023-12-14T04:49:18;14.83;;;6.00;;
23270;SDS011;11804;51.118;17.058;2023-12-14T04:51:46;20.90;;;7.83;;
23270;SDS011;11804;51.118;17.058;2023-12-14T04:54:14;23.43;;;8.53;;
23270;SDS011;11804;51.118;17.058;2023-12-14T04:56:41;18.83;;;8.67;;
23270;SDS011;11804;51.118;17.058;2023-12-14T04:59:10;17.03;;;7.23;;
23270;SDS011;11804;51.118;17.058;2023-12-14T05:01:38;18.67;;;7.30;;
23270;SDS011;11804;51.118;17.058;2023-12-14T05:04:05;28.13;;;7.80;;
23270;SDS011;11804;51.118;17.058;2023-12-14T05:06:33;17.00;;;7.40;;
23270;SDS011;11804;51.118;17.058;2023-12-14T05:09:01;18.43;;;7.50;;
23270;SDS011;11804;51.118;17.058;2023-12-14T05:11:30;18.80;;;7.30;;
23270;SDS011;11804;51.118;17.058;2023-12-14T05:13:58;14.33;;;6.97;;
23270;SDS011;11804;51.118;17.058;2023-12-14T05:16:26;25.47;;;9.10;;
23270;SDS011;11804;51.118;17.058;2023-12-14T05:18:53;19.00;;;7.83;;
23270;SDS011;11804;51.118;17.058;2023-12-14T05:21:23;18.37;;;7.40;;
23270;SDS011;11804;51.118;17.058;2023-12-14T05:23:50;21.83;;;6.70;;
23270;SDS011;11804;51.118;17.058;2023-12-14T05:26:19;20.33;;;7.60;;
23270;SDS011;11804;51.118;17.058;2023-12-14T05:28:49;21.40;;;7.87;;
23270;SDS011;11804;51.118;17.058;2023-12-14T05:31:17;21.67;;;8.73;;
23270;SDS011;11804;51.118;17.058;2023-12-14T05:33:46;22.80;;;8.07;;
23270;SDS011;11804;51.118;17.058;2023-12-14T05:36:14;20.67;;;7.50;;
23270;SDS011;11804;51.118;17.058;2023-12-14T05:38:41;20.50;;;7.87;;
23270;SDS011;11804;51.118;17.058;2023-12-14T05:41:09;25.03;;;8.20;;
23270;SDS011;11804;51.118;17.058;2023-12-14T05:43:37;19.53;;;6.50;;
23270;SDS011;11804;51.118;17.058;2023-12-14T05:46:04;17.97;;;7.67;;
23270;SDS011;11804;51.118;17.058;2023-12-14T05:48:32;19.90;;;8.07;;
23270;SDS011;11804;51.118;17.058;2023-12-14T05:51:00;23.37;;;8.50;;
23270;SDS011;11804;51.118;17.058;2023-12-14T05:53:28;17.20;;;7.70;;
23270;SDS011;11804;51.118;17.058;2023-12-14T05:55:56;22.93;;;9.33;;
23270;SDS011;11804;51.118;17.058;2023-12-14T05:58:25;14.60;;;8.07;;
23270;SDS011;11804;51.118;17.058;2023-12-14T06:00:52;18.37;;;7.93;;
23270;SDS011;11804;51.118;17.058;2023-12-14T06:03:20;23.53;;;7.63;;
23270;SDS011;11804;51.118;17.058;2023-12-14T06:05:47;19.23;;;7.97;;
23270;SDS011;11804;51.118;17.058;2023-12-14T06:08:17;16.60;;;7.23;;
23270;SDS011;11804;51.118;17.058;2023-12-14T06:10:44;23.93;;;8.67;;
23270;SDS011;11804;51.118;17.058;2023-12-14T06:13:12;17.70;;;8.47;;
23270;SDS011;11804;51.118;17.058;2023-12-14T06:15:39;19.23;;;7.83;;
23270;SDS011;11804;51.118;17.058;2023-12-14T06:18:09;18.37;;;7.47;;
23270;SDS011;11804;51.118;17.058;2023-12-14T06:20:36;14.97;;;6.73;;
23270;SDS011;11804;51.118;17.058;2023-12-14T06:23:05;20.23;;;8.07;;
23270;SDS011;11804;51.118;17.058;2023-12-14T06:25:33;18.93;;;7.17;;
23270;SDS011;11804;51.118;17.058;2023-12-14T06:28:01;13.63;;;6.67;;
23270;SDS011;11804;51.118;17.058;2023-12-14T06:30:29;18.43;;;6.23;;
23270;SDS011;11804;51.118;17.058;2023-12-14T06:32:56;17.17;;;7.43;;
23270;SDS011;11804;51.118;17.058;2023-12-14T06:35:24;16.87;;;7.03;;
23270;SDS011;11804;51.118;17.058;2023-12-14T06:37:51;16.77;;;6.57;;
23270;SDS011;11804;51.118;17.058;2023-12-14T06:40:21;13.40;;;6.10;;
23270;SDS011;11804;51.118;17.058;2023-12-14T06:42:48;12.70;;;6.50;;
23270;SDS011;11804;51.118;17.058;2023-12-14T06:45:16;14.87;;;7.67;;
23270;SDS011;11804;51.118;17.058;2023-12-14T06:47:46;17.73;;;8.47;;
23270;SDS011;11804;51.118;17.058;2023-12-14T06:50:16;13.17;;;6.30;;
23270;SDS011;11804;51.118;17.058;2023-12-14T06:52:43;16.23;;;6.33;;
23270;SDS011;11804;51.118;17.058;2023-12-14T06:55:11;15.90;;;5.90;;
23270;SDS011;11804;51.118;17.058;2023-12-14T06:57:43;21.10;;;6.97;;
23270;SDS011;11804;51.118;17.058;2023-12-14T07:00:13;13.60;;;6.07;;
23270;SDS011;11804;51.118;17.058;2023-12-14T07:02:41;20.07;;;7.37;;
23270;SDS011;11804;51.118;17.058;2023-12-14T07:05:10;21.73;;;6.37;;
23270;SDS011;11804;51.118;17.058;2023-12-14T07:07:37;14.33;;;5.23;;
23270;SDS011;11804;51.118;17.058;2023-12-14T07:10:05;12.80;;;6.27;;
23270;SDS011;11804;51.118;17.058;2023-12-14T07:12:34;15.03;;;6.10;;
23270;SDS011;11804;51.118;17.058;2023-12-14T07:15:01;19.10;;;6.50;;
23270;SDS011;11804;51.118;17.058;2023-12-14T07:17:29;12.17;;;5.20;;
23270;SDS011;11804;51.118;17.058;2023-12-14T07:19:57;21.50;;;6.90;;
23270;SDS011;11804;51.118;17.058;2023-12-14T07:22:25;16.37;;;6.43;;
23270;SDS011;11804;51.118;17.058;2023-12-14T07:24:52;12.93;;;6.13;;
23270;SDS011;11804;51.118;17.058;2023-12-14T07:27:21;20.47;;;6.40;;
23270;SDS011;11804;51.118;17.058;2023-12-14T07:29:49;17.17;;;7.23;;
23270;SDS011;11804;51.118;17.058;2023-12-14T07:32:17;15.07;;;6.90;;
23270;SDS011;11804;51.118;17.058;2023-12-14T07:34:44;15.10;;;6.17;;
23270;SDS011;11804;51.118;17.058;2023-12-14T07:37:12;14.40;;;7.57;;
23270;SDS011;11804;51.118;17.058;2023-12-14T07:39:40;24.33;;;7.93;;
23270;SDS011;11804;51.118;17.058;2023-12-14T07:42:07;18.67;;;7.87;;
23270;SDS011;11804;51.118;17.058;2023-12-14T07:44:37;16.53;;;6.97;;
23270;SDS011;11804;51.118;17.058;2023-12-14T07:47:06;20.93;;;7.43;;
23270;SDS011;11804;51.118;17.058;2023-12-14T07:49:34;17.33;;;7.67;;
23270;SDS011;11804;51.118;17.058;2023-12-14T07:52:04;20.23;;;8.03;;
23270;SDS011;11804;51.118;17.058;2023-12-14T07:54:32;17.53;;;6.73;;
23270;SDS011;11804;51.118;17.058;2023-12-14T07:57:00;18.93;;;6.37;;
23270;SDS011;11804;51.118;17.058;2023-12-14T07:59:28;16.53;;;6.83;;
23270;SDS011;11804;51.118;17.058;2023-12-14T08:01:55;19.90;;;6.97;;
23270;SDS011;11804;51.118;17.058;2023-12-14T08:04:23;19.10;;;8.07;;
23270;SDS011;11804;51.118;17.058;2023-12-14T08:06:51;15.23;;;7.23;;
23270;SDS011;11804;51.118;17.058;2023-12-14T08:09:21;17.37;;;6.27;;
23270;SDS011;11804;51.118;17.058;2023-12-14T08:11:48;16.47;;;6.97;;
23270;SDS011;11804;51.118;17.058;2023-12-14T08:14:17;16.23;;;6.43;;
23270;SDS011;11804;51.118;17.058;2023-12-14T08:16:45;15.93;;;7.97;;
23270;SDS011;11804;51.118;17.058;2023-12-14T08:19:12;16.53;;;7.00;;
23270;SDS011;11804;51.118;17.058;2023-12-14T08:21:40;18.90;;;7.83;;
23270;SDS011;11804;51.118;17.058;2023-12-14T08:24:07;22.63;;;9.17;;
23270;SDS011;11804;51.118;17.058;2023-12-14T08:26:35;17.70;;;6.47;;
23270;SDS011;11804;51.118;17.058;2023-12-14T08:29:03;16.53;;;7.37;;
23270;SDS011;11804;51.118;17.058;2023-12-14T08:31:30;19.00;;;7.67;;
23270;SDS011;11804;51.118;17.058;2023-12-14T08:33:58;20.07;;;7.53;;
23270;SDS011;11804;51.118;17.058;2023-12-14T08:36:25;15.77;;;7.37;;
23270;SDS011;11804;51.118;17.058;2023-12-14T08:38:53;19.33;;;8.40;;
23270;SDS011;11804;51.118;17.058;2023-12-14T08:41:20;21.97;;;9.43;;
23270;SDS011;11804;51.118;17.058;2023-12-14T08:43:48;16.87;;;6.80;;
23270;SDS011;11804;51.118;17.058;2023-12-14T08:46:15;11.33;;;6.33;;
23270;SDS011;11804;51.118;17.058;2023-12-14T08:48:43;26.83;;;8.77;;
23270;SDS011;11804;51.118;17.058;2023-12-14T08:51:10;21.80;;;7.60;;
23270;SDS011;11804;51.118;17.058;2023-12-14T08:53:38;21.53;;;8.03;;
23270;SDS011;11804;51.118;17.058;2023-12-14T08:56:06;17.57;;;6.70;;
23270;SDS011;11804;51.118;17.058;2023-12-14T08:58:35;16.47;;;7.20;;
23270;SDS011;11804;51.118;17.058;2023-12-14T09:01:03;22.27;;;9.00;;
23270;SDS011;11804;51.118;17.058;2023-12-14T09:03:31;20.90;;;7.87;;
23270;SDS011;11804;51.118;17.058;2023-12-14T09:05:58;18.90;;;7.20;;
23270;SDS011;11804;51.118;17.058;2023-12-14T09:08:28;22.57;;;10.20;;
23270;SDS011;11804;51.118;17.058;2023-12-14T09:10:55;24.27;;;8.87;;
23270;SDS011;11804;51.118;17.058;2023-12-14T09:13:23;24.53;;;8.87;;
23270;SDS011;11804;51.118;17.058;2023-12-14T09:15:50;29.50;;;10.90;;
23270;SDS011;11804;51.118;17.058;2023-12-14T09:18:19;41.30;;;15.97;;
23270;SDS011;11804;51.118;17.058;2023-12-14T09:20:49;22.60;;;8.53;;
23270;SDS011;11804;51.118;17.058;2023-12-14T09:23:17;32.50;;;11.63;;
23270;SDS011;11804;51.118;17.058;2023-12-14T09:25:45;22.80;;;9.13;;
23270;SDS011;11804;51.118;17.058;2023-12-14T09:28:13;16.33;;;7.43;;
23270;SDS011;11804;51.118;17.058;2023-12-14T09:30:40;15.73;;;6.37;;
23270;SDS011;11804;51.118;17.058;2023-12-14T09:33:08;15.57;;;7.23;;
23270;SDS011;11804;51.118;17.058;2023-12-14T09:35:36;17.60;;;6.50;;
23270;SDS011;11804;51.118;17.058;2023-12-14T09:38:05;14.40;;;5.90;;
23270;SDS011;11804;51.118;17.058;2023-12-14T09:40:34;13.20;;;5.73;;
23270;SDS011;11804;51.118;17.058;2023-12-14T09:43:03;20.03;;;6.77;;
23270;SDS011;11804;51.118;17.058;2023-12-14T09:45:30;14.40;;;6.53;;
23270;SDS011;11804;51.118;17.058;2023-12-14T09:47:59;10.70;;;5.87;;
23270;SDS011;11804;51.118;17.058;2023-12-14T09:50:30;12.53;;;6.00;;
23270;SDS011;11804;51.118;17.058;2023-12-14T09:53:00;13.47;;;6.20;;
23270;SDS011;11804;51.118;17.058;2023-12-14T09:55:29;15.90;;;7.57;;
23270;SDS011;11804;51.118;17.058;2023-12-14T09:57:57;14.83;;;7.27;;
23270;SDS011;11804;51.118;17.058;2023-12-14T10:00:34;14.20;;;6.10;;
23270;SDS011;11804;51.118;17.058;2023-12-14T10:03:20;26.80;;;6.23;;
23270;SDS011;11804;51.118;17.058;2023-12-14T10:05:52;12.93;;;6.67;;
23270;SDS011;11804;51.118;17.058;2023-12-14T10:08:22;16.47;;;7.10;;
23270;SDS011;11804;51.118;17.058;2023-12-14T10:10:51;12.27;;;6.80;;
23270;SDS011;11804;51.118;17.058;2023-12-14T10:13:21;13.97;;;6.90;;
23270;SDS011;11804;51.118;17.058;2023-12-14T10:15:57;13.93;;;5.70;;
23270;SDS011;11804;51.118;17.058;2023-12-14T10:18:26;12.60;;;5.70;;
23270;SDS011;11804;51.118;17.058;2023-12-14T10:20:55;11.07;;;5.27;;
23270;SDS011;11804;51.118;17.058;2023-12-14T10:23:23;14.73;;;6.83;;
23270;SDS011;11804;51.118;17.058;2023-12-14T10:25:50;16.00;;;6.57;;
23270;SDS011;11804;51.118;17.058;2023-12-14T10:28:20;16.73;;;5.63;;
23270;SDS011;11804;51.118;17.058;2023-12-14T10:30:50;13.37;;;6.47;;
23270;SDS011;11804;51.118;17.058;2023-12-14T10:33:18;19.47;;;8.13;;
23270;SDS011;11804;51.118;17.058;2023-12-14T10:35:46;17.70;;;8.37;;
23270;SDS011;11804;51.118;17.058;2023-12-14T10:38:14;16.83;;;6.63;;
23270;SDS011;11804;51.118;17.058;2023-12-14T10:40:44;15.47;;;7.00;;
23270;SDS011;11804;51.118;17.058;2023-12-14T10:43:12;17.30;;;6.63;;
23270;SDS011;11804;51.118;17.058;2023-12-14T10:45:43;19.93;;;7.17;;
23270;SDS011;11804;51.118;17.058;2023-12-14T10:48:13;15.03;;;6.40;;
23270;SDS011;11804;51.118;17.058;2023-12-14T10:50:42;13.37;;;5.40;;
23270;SDS011;11804;51.118;17.058;2023-12-14T10:53:11;9.50;;;5.13;;
23270;SDS011;11804;51.118;17.058;2023-12-14T10:55:41;12.13;;;5.50;;
23270;SDS011;11804;51.118;17.058;2023-12-14T10:58:12;11.37;;;5.63;;
23270;SDS011;11804;51.118;17.058;2023-12-14T11:00:40;10.47;;;4.77;;
23270;SDS011;11804;51.118;17.058;2023-12-14T11:03:12;15.60;;;5.57;;
23270;SDS011;11804;51.118;17.058;2023-12-14T11:05:40;13.10;;;5.87;;
23270;SDS011;11804;51.118;17.058;2023-12-14T11:08:08;15.93;;;6.80;;
23270;SDS011;11804;51.118;17.058;2023-12-14T11:10:53;12.23;;;5.50;;
23270;SDS011;11804;51.118;17.058;2023-12-14T11:13:10;11.37;;;4.80;;
23270;SDS011;11804;51.118;17.058;2023-12-14T11:15:40;11.70;;;5.20;;
23270;SDS011;11804;51.118;17.058;2023-12-14T11:20:50;10.53;;;4.30;;
23270;SDS011;11804;51.118;17.058;2023-12-14T11:25:57;14.23;;;6.67;;
23270;SDS011;11804;51.118;17.058;2023-12-14T11:28:30;14.57;;;6.50;;
23270;SDS011;11804;51.118;17.058;2023-12-14T11:30:59;13.13;;;6.23;;
23270;SDS011;11804;51.118;17.058;2023-12-14T11:33:28;11.97;;;5.40;;
23270;SDS011;11804;51.118;17.058;2023-12-14T11:35:56;13.00;;;5.33;;
23270;SDS011;11804;51.118;17.058;2023-12-14T11:38:24;10.67;;;5.40;;
23270;SDS011;11804;51.118;17.058;2023-12-14T11:40:52;14.03;;;5.93;;
23270;SDS011;11804;51.118;17.058;2023-12-14T11:43:21;15.40;;;6.63;;
23270;SDS011;11804;51.118;17.058;2023-12-14T11:45:50;14.10;;;6.17;;
23270;SDS011;11804;51.118;17.058;2023-12-14T11:48:17;18.40;;;6.77;;
23270;SDS011;11804;51.118;17.058;2023-12-14T11:50:46;19.23;;;6.87;;
23270;SDS011;11804;51.118;17.058;2023-12-14T11:53:14;17.47;;;6.60;;
23270;SDS011;11804;51.118;17.058;2023-12-14T11:55:42;16.07;;;6.17;;
23270;SDS011;11804;51.118;17.058;2023-12-14T11:58:11;16.33;;;6.40;;
23270;SDS011;11804;51.118;17.058;2023-12-14T12:00:42;10.67;;;4.47;;
23270;SDS011;11804;51.118;17.058;2023-12-14T12:03:13;10.87;;;5.17;;
23270;SDS011;11804;51.118;17.058;2023-12-14T12:05:49;14.10;;;5.53;;
23270;SDS011;11804;51.118;17.058;2023-12-14T12:08:19;14.37;;;6.07;;
23270;SDS011;11804;51.118;17.058;2023-12-14T12:10:47;13.50;;;5.43;;
23270;SDS011;11804;51.118;17.058;2023-12-14T12:13:17;13.00;;;5.97;;
23270;SDS011;11804;51.118;17.058;2023-12-14T12:15:46;11.67;;;5.40;;
23270;SDS011;11804;51.118;17.058;2023-12-14T12:18:14;8.90;;;4.37;;
23270;SDS011;11804;51.118;17.058;2023-12-14T12:20:44;9.17;;;5.13;;
23270;SDS011;11804;51.118;17.058;2023-12-14T12:23:11;12.00;;;4.97;;
23270;SDS011;11804;51.118;17.058;2023-12-14T12:25:39;13.10;;;4.93;;
23270;SDS011;11804;51.118;17.058;2023-12-14T12:28:06;12.90;;;5.97;;
23270;SDS011;11804;51.118;17.058;2023-12-14T12:30:34;9.97;;;4.93;;
23270;SDS011;11804;51.118;17.058;2023-12-14T12:33:01;11.13;;;5.20;;
23270;SDS011;11804;51.118;17.058;2023-12-14T12:35:29;15.87;;;5.43;;
23270;SDS011;11804;51.118;17.058;2023-12-14T12:37:58;12.80;;;5.43;;
23270;SDS011;11804;51.118;17.058;2023-12-14T12:40:26;13.13;;;6.10;;
23270;SDS011;11804;51.118;17.058;2023-12-14T12:42:55;12.33;;;5.47;;
23270;SDS011;11804;51.118;17.058;2023-12-14T12:45:23;15.83;;;6.90;;
23270;SDS011;11804;51.118;17.058;2023-12-14T12:47:54;13.97;;;6.63;;
23270;SDS011;11804;51.118;17.058;2023-12-14T12:50:21;11.83;;;5.30;;
23270;SDS011;11804;51.118;17.058;2023-12-14T12:52:49;10.23;;;5.00;;
23270;SDS011;11804;51.118;17.058;2023-12-14T12:55:17;12.03;;;5.80;;
23270;SDS011;11804;51.118;17.058;2023-12-14T12:57:45;11.60;;;5.77;;
23270;SDS011;11804;51.118;17.058;2023-12-14T13:00:14;7.70;;;4.23;;
23270;SDS011;11804;51.118;17.058;2023-12-14T13:02:42;9.67;;;4.70;;
23270;SDS011;11804;51.118;17.058;2023-12-14T13:05:11;11.33;;;4.50;;
23270;SDS011;11804;51.118;17.058;2023-12-14T13:07:41;9.10;;;4.87;;
23270;SDS011;11804;51.118;17.058;2023-12-14T13:10:11;12.27;;;5.10;;
23270;SDS011;11804;51.118;17.058;2023-12-14T13:12:39;13.83;;;5.20;;
23270;SDS011;11804;51.118;17.058;2023-12-14T13:15:07;10.30;;;4.90;;
23270;SDS011;11804;51.118;17.058;2023-12-14T13:17:35;14.17;;;4.87;;
23270;SDS011;11804;51.118;17.058;2023-12-14T13:20:03;10.07;;;5.23;;
23270;SDS011;11804;51.118;17.058;2023-12-14T13:22:37;10.03;;;5.53;;
23270;SDS011;11804;51.118;17.058;2023-12-14T13:25:04;12.57;;;5.03;;
23270;SDS011;11804;51.118;17.058;2023-12-14T13:27:32;11.40;;;5.27;;
23270;SDS011;11804;51.118;17.058;2023-12-14T13:30:02;10.30;;;5.57;;
23270;SDS011;11804;51.118;17.058;2023-12-14T13:32:32;10.40;;;5.37;;
23270;SDS011;11804;51.118;17.058;2023-12-14T13:34:59;12.43;;;5.63;;
23270;SDS011;11804;51.118;17.058;2023-12-14T13:37:27;12.07;;;6.00;;
23270;SDS011;11804;51.118;17.058;2023-12-14T13:39:55;11.63;;;4.87;;
23270;SDS011;11804;51.118;17.058;2023-12-14T13:42:22;9.50;;;4.77;;
23270;SDS011;11804;51.118;17.058;2023-12-14T13:44:50;15.70;;;4.93;;
23270;SDS011;11804;51.118;17.058;2023-12-14T13:47:18;13.07;;;4.77;;
23270;SDS011;11804;51.118;17.058;2023-12-14T13:49:45;11.10;;;4.60;;
23270;SDS011;11804;51.118;17.058;2023-12-14T13:52:13;12.93;;;5.33;;
23270;SDS011;11804;51.118;17.058;2023-12-14T13:54:40;15.20;;;5.13;;
23270;SDS011;11804;51.118;17.058;2023-12-14T13:57:08;10.80;;;4.90;;
23270;SDS011;11804;51.118;17.058;2023-12-14T13:59:36;10.93;;;5.10;;
23270;SDS011;11804;51.118;17.058;2023-12-14T14:02:05;11.37;;;5.43;;
23270;SDS011;11804;51.118;17.058;2023-12-14T14:04:33;10.27;;;4.37;;
23270;SDS011;11804;51.118;17.058;2023-12-14T14:07:00;10.83;;;5.07;;
23270;SDS011;11804;51.118;17.058;2023-12-14T14:09:28;14.23;;;4.83;;
23270;SDS011;11804;51.118;17.058;2023-12-14T14:11:55;14.37;;;5.13;;
23270;SDS011;11804;51.118;17.058;2023-12-14T14:14:23;6.87;;;3.80;;
23270;SDS011;11804;51.118;17.058;2023-12-14T14:16:50;13.57;;;4.57;;
23270;SDS011;11804;51.118;17.058;2023-12-14T14:19:18;12.00;;;4.90;;
23270;SDS011;11804;51.118;17.058;2023-12-14T14:21:46;20.40;;;6.90;;
23270;SDS011;11804;51.118;17.058;2023-12-14T14:24:14;15.90;;;6.00;;
23270;SDS011;11804;51.118;17.058;2023-12-14T14:26:41;12.53;;;5.57;;
23270;SDS011;11804;51.118;17.058;2023-12-14T14:29:09;12.23;;;5.13;;
23270;SDS011;11804;51.118;17.058;2023-12-14T14:31:37;11.33;;;4.60;;